sensor_id;sensor_type;location;lat;lon;timestamp;P1;durP1;ratioP1;P2;durP2;ratioP2
53040;SDS011;39326;42.650;23.248;2023-05-07T00:01:03;4.27;;;3.87;;
53040;SDS011;39326;42.650;23.248;2023-05-07T00:03:30;6.10;;;4.23;;
53040;SDS011;39326;42.650;23.248;2023-05-07T00:05:56;6.10;;;5.00;;
53040;SDS011;39326;42.650;23.248;2023-05-07T00:08:21;5.83;;;5.17;;
53040;SDS011;39326;42.650;23.248;2023-05-07T00:10:47;6.80;;;5.07;;
53040;SDS011;39326;42.650;23.248;2023-05-07T00:13:12;5.60;;;5.10;;
53040;SDS011;39326;42.650;23.248;2023-05-07T00:15:38;5.37;;;4.87;;
53040;SDS011;39326;42.650;23.248;2023-05-07T00:18:03;5.07;;;4.57;;
53040;SDS011;39326;42.650;23.248;2023-05-07T00:20:29;4.80;;;4.30;;
53040;SDS011;39326;42.650;23.248;2023-05-07T00:22:55;6.50;;;4.90;;
53040;SDS011;39326;42.650;23.248;2023-05-07T00:25:20;4.90;;;4.50;;
53040;SDS011;39326;42.650;23.248;2023-05-07T00:27:45;9.23;;;5.20;;
53040;SDS011;39326;42.650;23.248;2023-05-07T00:30:11;5.23;;;4.73;;
53040;SDS011;39326;42.650;23.248;2023-05-07T00:32:37;5.40;;;4.90;;
53040;SDS011;39326;42.650;23.248;2023-05-07T00:35:03;4.67;;;4.27;;
53040;SDS011;39326;42.650;23.248;2023-05-07T00:37:29;5.03;;;4.67;;
53040;SDS011;39326;42.650;23.248;2023-05-07T00:39:55;6.40;;;5.37;;
53040;SDS011;39326;42.650;23.248;2023-05-07T00:42:20;5.60;;;5.07;;
53040;SDS011;39326;42.650;23.248;2023-05-07T00:44:46;5.77;;;5.27;;
53040;SDS011;39326;42.650;23.248;2023-05-07T00:47:12;5.93;;;5.43;;
53040;SDS011;39326;42.650;23.248;2023-05-07T00:49:39;5.80;;;5.30;;
53040;SDS011;39326;42.650;23.248;2023-05-07T00:52:14;5.63;;;4.93;;
53040;SDS011;39326;42.650;23.248;2023-05-07T00:54:41;5.03;;;4.57;;
53040;SDS011;39326;42.650;23.248;2023-05-07T00:57:07;5.03;;;4.63;;
53040;SDS011;39326;42.650;23.248;2023-05-07T00:59:36;5.07;;;4.40;;
53040;SDS011;39326;42.650;23.248;2023-05-07T01:02:01;5.00;;;4.60;;
53040;SDS011;39326;42.650;23.248;2023-05-07T01:04:27;4.50;;;4.10;;
53040;SDS011;39326;42.650;23.248;2023-05-07T01:06:52;5.10;;;4.70;;
53040;SDS011;39326;42.650;23.248;2023-05-07T01:09:21;5.10;;;4.70;;
53040;SDS011;39326;42.650;23.248;2023-05-07T01:11:47;5.00;;;4.60;;
53040;SDS011;39326;42.650;23.248;2023-05-07T01:14:15;5.27;;;4.87;;
53040;SDS011;39326;42.650;23.248;2023-05-07T01:16:41;6.30;;;5.63;;
53040;SDS011;39326;42.650;23.248;2023-05-07T01:19:08;7.90;;;5.17;;
53040;SDS011;39326;42.650;23.248;2023-05-07T01:21:36;5.53;;;5.03;;
53040;SDS011;39326;42.650;23.248;2023-05-07T01:24:02;5.90;;;5.33;;
53040;SDS011;39326;42.650;23.248;2023-05-07T01:26:30;5.20;;;4.80;;
53040;SDS011;39326;42.650;23.248;2023-05-07T01:28:55;5.60;;;5.00;;
53040;SDS011;39326;42.650;23.248;2023-05-07T01:31:21;4.63;;;4.33;;
53040;SDS011;39326;42.650;23.248;2023-05-07T01:33:48;5.73;;;5.20;;
53040;SDS011;39326;42.650;23.248;2023-05-07T01:36:17;5.37;;;4.87;;
53040;SDS011;39326;42.650;23.248;2023-05-07T01:38:46;5.30;;;4.80;;
53040;SDS011;39326;42.650;23.248;2023-05-07T01:41:11;5.20;;;4.70;;
53040;SDS011;39326;42.650;23.248;2023-05-07T01:43:38;5.17;;;4.70;;
53040;SDS011;39326;42.650;23.248;2023-05-07T01:46:06;5.43;;;4.93;;
53040;SDS011;39326;42.650;23.248;2023-05-07T01:48:33;5.40;;;5.00;;
53040;SDS011;39326;42.650;23.248;2023-05-07T01:50:59;5.77;;;5.27;;
53040;SDS011;39326;42.650;23.248;2023-05-07T01:53:26;6.50;;;5.90;;
53040;SDS011;39326;42.650;23.248;2023-05-07T01:55:52;5.70;;;5.20;;
53040;SDS011;39326;42.650;23.248;2023-05-07T01:58:18;5.80;;;5.30;;
53040;SDS011;39326;42.650;23.248;2023-05-07T02:00:43;5.50;;;5.10;;
53040;SDS011;39326;42.650;23.248;2023-05-07T02:03:09;5.97;;;5.37;;
53040;SDS011;39326;42.650;23.248;2023-05-07T02:05:34;5.33;;;4.90;;
53040;SDS011;39326;42.650;23.248;2023-05-07T02:08:00;6.17;;;5.40;;
53040;SDS011;39326;42.650;23.248;2023-05-07T02:10:25;6.10;;;5.50;;
53040;SDS011;39326;42.650;23.248;2023-05-07T02:12:51;7.73;;;6.07;;
53040;SDS011;39326;42.650;23.248;2023-05-07T02:15:16;5.70;;;5.20;;
53040;SDS011;39326;42.650;23.248;2023-05-07T02:20:26;5.63;;;5.13;;
53040;SDS011;39326;42.650;23.248;2023-05-07T02:22:51;5.80;;;5.30;;
53040;SDS011;39326;42.650;23.248;2023-05-07T02:25:17;5.53;;;4.90;;
53040;SDS011;39326;42.650;23.248;2023-05-07T02:27:42;5.60;;;5.10;;
53040;SDS011;39326;42.650;23.248;2023-05-07T02:30:08;5.93;;;5.43;;
53040;SDS011;39326;42.650;23.248;2023-05-07T02:32:33;4.60;;;4.27;;
53040;SDS011;39326;42.650;23.248;2023-05-07T02:34:59;5.33;;;4.90;;
53040;SDS011;39326;42.650;23.248;2023-05-07T02:37:24;5.40;;;4.90;;
53040;SDS011;39326;42.650;23.248;2023-05-07T02:39:50;5.10;;;4.70;;
53040;SDS011;39326;42.650;23.248;2023-05-07T02:42:15;5.57;;;4.87;;
53040;SDS011;39326;42.650;23.248;2023-05-07T02:44:40;5.20;;;4.80;;
53040;SDS011;39326;42.650;23.248;2023-05-07T02:47:06;5.47;;;5.07;;
53040;SDS011;39326;42.650;23.248;2023-05-07T02:49:33;5.00;;;4.50;;
53040;SDS011;39326;42.650;23.248;2023-05-07T02:51:59;7.83;;;5.40;;
53040;SDS011;39326;42.650;23.248;2023-05-07T02:54:24;5.80;;;5.30;;
53040;SDS011;39326;42.650;23.248;2023-05-07T02:56:50;6.57;;;6.03;;
53040;SDS011;39326;42.650;23.248;2023-05-07T02:59:15;6.03;;;5.50;;
53040;SDS011;39326;42.650;23.248;2023-05-07T03:01:40;6.20;;;5.60;;
53040;SDS011;39326;42.650;23.248;2023-05-07T03:04:08;6.77;;;6.07;;
53040;SDS011;39326;42.650;23.248;2023-05-07T03:06:35;6.93;;;6.27;;
53040;SDS011;39326;42.650;23.248;2023-05-07T03:09:01;7.00;;;6.40;;
53040;SDS011;39326;42.650;23.248;2023-05-07T03:11:26;7.03;;;6.43;;
53040;SDS011;39326;42.650;23.248;2023-05-07T03:13:52;8.03;;;7.30;;
53040;SDS011;39326;42.650;23.248;2023-05-07T03:16:17;7.60;;;6.90;;
53040;SDS011;39326;42.650;23.248;2023-05-07T03:18:43;7.57;;;6.87;;
53040;SDS011;39326;42.650;23.248;2023-05-07T03:21:08;8.57;;;7.20;;
53040;SDS011;39326;42.650;23.248;2023-05-07T03:23:34;7.77;;;6.93;;
53040;SDS011;39326;42.650;23.248;2023-05-07T03:25:59;7.80;;;6.87;;
53040;SDS011;39326;42.650;23.248;2023-05-07T03:28:24;7.97;;;7.27;;
53040;SDS011;39326;42.650;23.248;2023-05-07T03:30:50;7.70;;;6.90;;
53040;SDS011;39326;42.650;23.248;2023-05-07T03:33:15;8.33;;;7.50;;
53040;SDS011;39326;42.650;23.248;2023-05-07T03:35:41;8.17;;;7.47;;
53040;SDS011;39326;42.650;23.248;2023-05-07T03:38:06;7.83;;;7.13;;
53040;SDS011;39326;42.650;23.248;2023-05-07T03:40:32;9.47;;;8.57;;
53040;SDS011;39326;42.650;23.248;2023-05-07T03:42:58;8.53;;;7.80;;
53040;SDS011;39326;42.650;23.248;2023-05-07T03:45:24;9.57;;;8.87;;
53040;SDS011;39326;42.650;23.248;2023-05-07T03:47:50;8.43;;;7.73;;
53040;SDS011;39326;42.650;23.248;2023-05-07T03:50:16;9.17;;;8.37;;
53040;SDS011;39326;42.650;23.248;2023-05-07T03:52:42;8.80;;;8.07;;
53040;SDS011;39326;42.650;23.248;2023-05-07T03:55:07;8.33;;;7.63;;
53040;SDS011;39326;42.650;23.248;2023-05-07T03:57:33;8.30;;;7.50;;
53040;SDS011;39326;42.650;23.248;2023-05-07T03:59:58;8.60;;;7.83;;
53040;SDS011;39326;42.650;23.248;2023-05-07T04:02:24;8.97;;;7.93;;
53040;SDS011;39326;42.650;23.248;2023-05-07T04:04:49;9.23;;;8.43;;
53040;SDS011;39326;42.650;23.248;2023-05-07T04:07:15;9.07;;;8.17;;
53040;SDS011;39326;42.650;23.248;2023-05-07T04:09:40;9.10;;;8.20;;
53040;SDS011;39326;42.650;23.248;2023-05-07T04:12:06;9.00;;;8.30;;
53040;SDS011;39326;42.650;23.248;2023-05-07T04:14:31;9.30;;;8.53;;
53040;SDS011;39326;42.650;23.248;2023-05-07T04:16:58;9.13;;;8.33;;
53040;SDS011;39326;42.650;23.248;2023-05-07T04:19:24;9.70;;;8.90;;
53040;SDS011;39326;42.650;23.248;2023-05-07T04:21:50;10.97;;;10.03;;
53040;SDS011;39326;42.650;23.248;2023-05-07T04:24:15;11.60;;;10.50;;
53040;SDS011;39326;42.650;23.248;2023-05-07T04:26:41;9.80;;;9.00;;
53040;SDS011;39326;42.650;23.248;2023-05-07T04:29:06;11.53;;;9.90;;
53040;SDS011;39326;42.650;23.248;2023-05-07T04:31:32;11.10;;;10.10;;
53040;SDS011;39326;42.650;23.248;2023-05-07T04:33:57;10.43;;;9.43;;
53040;SDS011;39326;42.650;23.248;2023-05-07T04:36:22;10.63;;;9.73;;
53040;SDS011;39326;42.650;23.248;2023-05-07T04:38:49;10.70;;;9.43;;
53040;SDS011;39326;42.650;23.248;2023-05-07T04:41:14;9.87;;;8.87;;
53040;SDS011;39326;42.650;23.248;2023-05-07T04:43:40;9.80;;;8.90;;
53040;SDS011;39326;42.650;23.248;2023-05-07T04:46:06;10.90;;;9.80;;
53040;SDS011;39326;42.650;23.248;2023-05-07T04:48:32;10.53;;;9.53;;
53040;SDS011;39326;42.650;23.248;2023-05-07T04:50:57;9.83;;;9.03;;
53040;SDS011;39326;42.650;23.248;2023-05-07T04:53:23;10.17;;;9.37;;
53040;SDS011;39326;42.650;23.248;2023-05-07T04:55:48;10.87;;;9.97;;
53040;SDS011;39326;42.650;23.248;2023-05-07T04:58:14;10.70;;;9.43;;
53040;SDS011;39326;42.650;23.248;2023-05-07T05:00:39;11.27;;;10.23;;
53040;SDS011;39326;42.650;23.248;2023-05-07T05:03:07;9.50;;;8.60;;
53040;SDS011;39326;42.650;23.248;2023-05-07T05:05:32;10.30;;;9.47;;
53040;SDS011;39326;42.650;23.248;2023-05-07T05:07:58;10.80;;;9.77;;
53040;SDS011;39326;42.650;23.248;2023-05-07T05:10:23;9.43;;;8.53;;
53040;SDS011;39326;42.650;23.248;2023-05-07T05:12:49;9.93;;;9.03;;
53040;SDS011;39326;42.650;23.248;2023-05-07T05:15:15;9.57;;;8.77;;
53040;SDS011;39326;42.650;23.248;2023-05-07T05:17:40;9.87;;;9.00;;
53040;SDS011;39326;42.650;23.248;2023-05-07T05:20:06;7.97;;;7.33;;
53040;SDS011;39326;42.650;23.248;2023-05-07T05:22:32;8.60;;;7.90;;
53040;SDS011;39326;42.650;23.248;2023-05-07T05:24:58;8.23;;;7.43;;
53040;SDS011;39326;42.650;23.248;2023-05-07T05:27:23;8.40;;;7.33;;
53040;SDS011;39326;42.650;23.248;2023-05-07T05:29:49;8.73;;;7.83;;
53040;SDS011;39326;42.650;23.248;2023-05-07T05:32:14;8.87;;;8.17;;
53040;SDS011;39326;42.650;23.248;2023-05-07T05:34:40;8.57;;;7.77;;
53040;SDS011;39326;42.650;23.248;2023-05-07T05:37:05;8.87;;;7.97;;
53040;SDS011;39326;42.650;23.248;2023-05-07T05:39:31;9.17;;;8.20;;
53040;SDS011;39326;42.650;23.248;2023-05-07T05:41:57;8.50;;;7.70;;
53040;SDS011;39326;42.650;23.248;2023-05-07T05:44:22;8.87;;;8.07;;
53040;SDS011;39326;42.650;23.248;2023-05-07T05:46:47;8.80;;;7.93;;
53040;SDS011;39326;42.650;23.248;2023-05-07T05:49:14;8.37;;;7.47;;
53040;SDS011;39326;42.650;23.248;2023-05-07T05:51:40;8.53;;;7.73;;
53040;SDS011;39326;42.650;23.248;2023-05-07T05:54:05;8.20;;;7.60;;
53040;SDS011;39326;42.650;23.248;2023-05-07T05:56:31;9.47;;;8.67;;
53040;SDS011;39326;42.650;23.248;2023-05-07T05:58:56;9.67;;;8.97;;
53040;SDS011;39326;42.650;23.248;2023-05-07T06:01:21;9.23;;;8.53;;
53040;SDS011;39326;42.650;23.248;2023-05-07T06:03:47;8.90;;;8.00;;
53040;SDS011;39326;42.650;23.248;2023-05-07T06:06:12;8.70;;;7.87;;
53040;SDS011;39326;42.650;23.248;2023-05-07T06:08:39;9.60;;;8.53;;
53040;SDS011;39326;42.650;23.248;2023-05-07T06:11:05;9.07;;;8.27;;
53040;SDS011;39326;42.650;23.248;2023-05-07T06:13:30;9.47;;;8.73;;
53040;SDS011;39326;42.650;23.248;2023-05-07T06:15:55;8.60;;;7.90;;
53040;SDS011;39326;42.650;23.248;2023-05-07T06:18:21;8.60;;;7.80;;
53040;SDS011;39326;42.650;23.248;2023-05-07T06:20:46;9.27;;;8.47;;
53040;SDS011;39326;42.650;23.248;2023-05-07T06:23:12;8.77;;;8.03;;
53040;SDS011;39326;42.650;23.248;2023-05-07T06:25:37;9.20;;;8.40;;
53040;SDS011;39326;42.650;23.248;2023-05-07T06:28:02;10.47;;;9.57;;
53040;SDS011;39326;42.650;23.248;2023-05-07T06:30:28;9.70;;;8.63;;
53040;SDS011;39326;42.650;23.248;2023-05-07T06:32:53;10.57;;;8.77;;
53040;SDS011;39326;42.650;23.248;2023-05-07T06:35:19;9.93;;;9.00;;
53040;SDS011;39326;42.650;23.248;2023-05-07T06:37:44;10.60;;;9.70;;
53040;SDS011;39326;42.650;23.248;2023-05-07T06:40:10;9.20;;;8.50;;
53040;SDS011;39326;42.650;23.248;2023-05-07T06:42:36;10.23;;;9.32;;
53040;SDS011;39326;42.650;23.248;2023-05-07T06:45:01;10.10;;;9.23;;
53040;SDS011;39326;42.650;23.248;2023-05-07T06:47:27;9.10;;;8.30;;
53040;SDS011;39326;42.650;23.248;2023-05-07T06:49:53;11.63;;;8.70;;
53040;SDS011;39326;42.650;23.248;2023-05-07T06:52:18;8.33;;;7.53;;
53040;SDS011;39326;42.650;23.248;2023-05-07T06:54:44;8.73;;;8.03;;
53040;SDS011;39326;42.650;23.248;2023-05-07T06:57:09;8.73;;;8.03;;
53040;SDS011;39326;42.650;23.248;2023-05-07T06:59:35;9.57;;;7.90;;
53040;SDS011;39326;42.650;23.248;2023-05-07T07:02:00;8.83;;;8.10;;
53040;SDS011;39326;42.650;23.248;2023-05-07T07:04:25;8.53;;;7.73;;
53040;SDS011;39326;42.650;23.248;2023-05-07T07:06:51;9.07;;;8.27;;
53040;SDS011;39326;42.650;23.248;2023-05-07T07:09:18;9.23;;;8.30;;
53040;SDS011;39326;42.650;23.248;2023-05-07T07:11:43;10.57;;;8.60;;
53040;SDS011;39326;42.650;23.248;2023-05-07T07:14:08;9.63;;;8.70;;
53040;SDS011;39326;42.650;23.248;2023-05-07T07:16:34;8.75;;;7.80;;
53040;SDS011;39326;42.650;23.248;2023-05-07T07:19:00;8.60;;;7.75;;
53040;SDS011;39326;42.650;23.248;2023-05-07T07:21:25;8.80;;;8.00;;
53040;SDS011;39326;42.650;23.248;2023-05-07T07:23:50;8.63;;;7.75;;
53040;SDS011;39326;42.650;23.248;2023-05-07T07:26:17;9.13;;;7.73;;
53040;SDS011;39326;42.650;23.248;2023-05-07T07:28:43;7.85;;;7.15;;
53040;SDS011;39326;42.650;23.248;2023-05-07T07:31:09;7.82;;;7.13;;
53040;SDS011;39326;42.650;23.248;2023-05-07T07:33:34;8.10;;;6.47;;
53040;SDS011;39326;42.650;23.248;2023-05-07T07:36:00;7.72;;;6.85;;
53040;SDS011;39326;42.650;23.248;2023-05-07T07:38:25;7.72;;;7.03;;
53040;SDS011;39326;42.650;23.248;2023-05-07T07:40:51;7.35;;;6.68;;
53040;SDS011;39326;42.650;23.248;2023-05-07T07:43:16;5.88;;;5.32;;
53040;SDS011;39326;42.650;23.248;2023-05-07T07:45:41;6.65;;;6.10;;
53040;SDS011;39326;42.650;23.248;2023-05-07T07:48:07;6.45;;;5.85;;
53040;SDS011;39326;42.650;23.248;2023-05-07T07:50:32;7.40;;;6.70;;
53040;SDS011;39326;42.650;23.248;2023-05-07T07:52:58;7.30;;;6.70;;
53040;SDS011;39326;42.650;23.248;2023-05-07T07:55:23;8.43;;;6.22;;
53040;SDS011;39326;42.650;23.248;2023-05-07T07:57:49;7.63;;;6.93;;
53040;SDS011;39326;42.650;23.248;2023-05-07T08:00:15;7.40;;;6.70;;
53040;SDS011;39326;42.650;23.248;2023-05-07T08:02:41;7.72;;;6.05;;
53040;SDS011;39326;42.650;23.248;2023-05-07T08:05:07;7.50;;;6.13;;
53040;SDS011;39326;42.650;23.248;2023-05-07T08:07:32;6.85;;;6.20;;
53040;SDS011;39326;42.650;23.248;2023-05-07T08:09:58;7.18;;;6.47;;
53040;SDS011;39326;42.650;23.248;2023-05-07T08:12:23;6.43;;;5.82;;
53040;SDS011;39326;42.650;23.248;2023-05-07T08:14:49;6.35;;;5.90;;
53040;SDS011;39326;42.650;23.248;2023-05-07T08:17:14;6.40;;;5.80;;
53040;SDS011;39326;42.650;23.248;2023-05-07T08:19:41;6.05;;;5.45;;
53040;SDS011;39326;42.650;23.248;2023-05-07T08:22:07;6.50;;;5.90;;
53040;SDS011;39326;42.650;23.248;2023-05-07T08:24:32;5.60;;;5.20;;
53040;SDS011;39326;42.650;23.248;2023-05-07T08:26:58;7.45;;;6.75;;
53040;SDS011;39326;42.650;23.248;2023-05-07T08:29:23;7.22;;;6.53;;
53040;SDS011;39326;42.650;23.248;2023-05-07T08:31:49;6.88;;;6.28;;
53040;SDS011;39326;42.650;23.248;2023-05-07T08:34:14;6.55;;;5.93;;
53040;SDS011;39326;42.650;23.248;2023-05-07T08:36:40;5.85;;;5.32;;
53040;SDS011;39326;42.650;23.248;2023-05-07T08:39:06;6.38;;;5.88;;
53040;SDS011;39326;42.650;23.248;2023-05-07T08:41:32;6.18;;;5.00;;
53040;SDS011;39326;42.650;23.248;2023-05-07T08:43:58;6.88;;;6.20;;
53040;SDS011;39326;42.650;23.248;2023-05-07T08:46:27;6.22;;;5.63;;
53040;SDS011;39326;42.650;23.248;2023-05-07T08:48:56;5.75;;;5.25;;
53040;SDS011;39326;42.650;23.248;2023-05-07T08:51:22;5.97;;;5.50;;
53040;SDS011;39326;42.650;23.248;2023-05-07T08:53:48;5.45;;;4.95;;
53040;SDS011;39326;42.650;23.248;2023-05-07T08:56:14;5.60;;;5.10;;
53040;SDS011;39326;42.650;23.248;2023-05-07T08:58:41;7.10;;;6.40;;
53040;SDS011;39326;42.650;23.248;2023-05-07T09:01:08;6.40;;;5.82;;
53040;SDS011;39326;42.650;23.248;2023-05-07T09:03:37;6.45;;;5.85;;
53040;SDS011;39326;42.650;23.248;2023-05-07T09:06:03;7.28;;;6.68;;
53040;SDS011;39326;42.650;23.248;2023-05-07T09:08:28;7.72;;;6.60;;
53040;SDS011;39326;42.650;23.248;2023-05-07T09:10:54;7.78;;;6.95;;
53040;SDS011;39326;42.650;23.248;2023-05-07T09:13:19;5.93;;;5.45;;
53040;SDS011;39326;42.650;23.248;2023-05-07T09:15:45;6.10;;;5.50;;
53040;SDS011;39326;42.650;23.248;2023-05-07T09:18:12;5.97;;;5.40;;
53040;SDS011;39326;42.650;23.248;2023-05-07T09:20:37;5.47;;;4.95;;
53040;SDS011;39326;42.650;23.248;2023-05-07T09:23:03;7.55;;;5.60;;
53040;SDS011;39326;42.650;23.248;2023-05-07T09:25:32;7.47;;;6.18;;
53040;SDS011;39326;42.650;23.248;2023-05-07T09:27:59;6.00;;;5.35;;
53040;SDS011;39326;42.650;23.248;2023-05-07T09:30:29;5.70;;;5.30;;
53040;SDS011;39326;42.650;23.248;2023-05-07T09:32:58;5.57;;;5.05;;
53040;SDS011;39326;42.650;23.248;2023-05-07T09:35:24;5.15;;;4.75;;
53040;SDS011;39326;42.650;23.248;2023-05-07T09:37:55;6.03;;;4.78;;
53040;SDS011;39326;42.650;23.248;2023-05-07T09:42:52;4.97;;;4.45;;
53040;SDS011;39326;42.650;23.248;2023-05-07T09:45:27;4.95;;;4.55;;
53040;SDS011;39326;42.650;23.248;2023-05-07T09:47:57;4.38;;;3.97;;
53040;SDS011;39326;42.650;23.248;2023-05-07T09:50:26;6.68;;;5.20;;
53040;SDS011;39326;42.650;23.248;2023-05-07T09:52:57;5.82;;;5.32;;
53040;SDS011;39326;42.650;23.248;2023-05-07T09:55:23;6.68;;;4.75;;
53040;SDS011;39326;42.650;23.248;2023-05-07T09:57:52;5.40;;;4.90;;
53040;SDS011;39326;42.650;23.248;2023-05-07T10:00:19;5.78;;;5.20;;
53040;SDS011;39326;42.650;23.248;2023-05-07T10:02:46;5.60;;;5.20;;
53040;SDS011;39326;42.650;23.248;2023-05-07T10:05:14;6.82;;;4.68;;
53040;SDS011;39326;42.650;23.248;2023-05-07T10:07:40;4.70;;;4.07;;
53040;SDS011;39326;42.650;23.248;2023-05-07T10:10:06;5.90;;;4.68;;
53040;SDS011;39326;42.650;23.248;2023-05-07T10:12:32;5.28;;;4.88;;
53040;SDS011;39326;42.650;23.248;2023-05-07T10:15:04;4.25;;;3.92;;
53040;SDS011;39326;42.650;23.248;2023-05-07T10:17:38;5.22;;;4.15;;
53040;SDS011;39326;42.650;23.248;2023-05-07T10:20:05;5.15;;;4.75;;
53040;SDS011;39326;42.650;23.248;2023-05-07T10:22:32;4.70;;;4.15;;
53040;SDS011;39326;42.650;23.248;2023-05-07T10:25:21;4.75;;;4.00;;
53040;SDS011;39326;42.650;23.248;2023-05-07T10:27:50;4.30;;;3.60;;
53040;SDS011;39326;42.650;23.248;2023-05-07T10:33:14;4.40;;;4.00;;
53040;SDS011;39326;42.650;23.248;2023-05-07T10:35:42;3.80;;;3.50;;
53040;SDS011;39326;42.650;23.248;2023-05-07T10:38:10;4.38;;;3.90;;
53040;SDS011;39326;42.650;23.248;2023-05-07T10:40:36;4.00;;;3.70;;
53040;SDS011;39326;42.650;23.248;2023-05-07T10:43:02;4.28;;;3.53;;
53040;SDS011;39326;42.650;23.248;2023-05-07T10:45:32;5.63;;;3.70;;
53040;SDS011;39326;42.650;23.248;2023-05-07T10:48:14;4.30;;;3.90;;
53040;SDS011;39326;42.650;23.248;2023-05-07T10:50:41;3.85;;;3.55;;
53040;SDS011;39326;42.650;23.248;2023-05-07T10:53:26;4.72;;;4.30;;
53040;SDS011;39326;42.650;23.248;2023-05-07T10:56:23;5.07;;;3.60;;
53040;SDS011;39326;42.650;23.248;2023-05-07T10:58:45;4.25;;;3.58;;
53040;SDS011;39326;42.650;23.248;2023-05-07T11:01:10;4.15;;;3.75;;
53040;SDS011;39326;42.650;23.248;2023-05-07T11:04:11;4.15;;;3.75;;
53040;SDS011;39326;42.650;23.248;2023-05-07T11:06:40;5.03;;;4.53;;
53040;SDS011;39326;42.650;23.248;2023-05-07T11:09:05;6.35;;;4.07;;
53040;SDS011;39326;42.650;23.248;2023-05-07T11:15:01;4.35;;;3.95;;
53040;SDS011;39326;42.650;23.248;2023-05-07T11:17:20;4.32;;;3.70;;
53040;SDS011;39326;42.650;23.248;2023-05-07T11:19:55;4.90;;;4.13;;
53040;SDS011;39326;42.650;23.248;2023-05-07T11:24:55;4.60;;;3.88;;
53040;SDS011;39326;42.650;23.248;2023-05-07T11:27:24;3.70;;;3.45;;
53040;SDS011;39326;42.650;23.248;2023-05-07T11:29:51;5.75;;;4.07;;
53040;SDS011;39326;42.650;23.248;2023-05-07T11:32:22;4.75;;;4.35;;
53040;SDS011;39326;42.650;23.248;2023-05-07T11:34:52;3.92;;;3.63;;
53040;SDS011;39326;42.650;23.248;2023-05-07T11:37:19;5.35;;;3.60;;
53040;SDS011;39326;42.650;23.248;2023-05-07T11:39:45;3.75;;;3.45;;
53040;SDS011;39326;42.650;23.248;2023-05-07T11:42:32;4.13;;;3.78;;
53040;SDS011;39326;42.650;23.248;2023-05-07T11:44:58;4.03;;;3.63;;
53040;SDS011;39326;42.650;23.248;2023-05-07T11:47:24;5.68;;;3.70;;
53040;SDS011;39326;42.650;23.248;2023-05-07T11:49:53;4.47;;;3.83;;
53040;SDS011;39326;42.650;23.248;2023-05-07T11:52:20;4.15;;;3.78;;
53040;SDS011;39326;42.650;23.248;2023-05-07T11:54:54;4.55;;;4.15;;
53040;SDS011;39326;42.650;23.248;2023-05-07T11:57:21;4.32;;;3.92;;
53040;SDS011;39326;42.650;23.248;2023-05-07T11:59:47;5.10;;;4.70;;
53040;SDS011;39326;42.650;23.248;2023-05-07T12:02:13;4.30;;;3.90;;
53040;SDS011;39326;42.650;23.248;2023-05-07T12:04:40;4.07;;;3.78;;
53040;SDS011;39326;42.650;23.248;2023-05-07T12:07:10;3.78;;;3.47;;
53040;SDS011;39326;42.650;23.248;2023-05-07T12:09:40;4.22;;;3.92;;
53040;SDS011;39326;42.650;23.248;2023-05-07T12:12:06;3.85;;;3.33;;
53040;SDS011;39326;42.650;23.248;2023-05-07T12:14:32;3.95;;;3.60;;
53040;SDS011;39326;42.650;23.248;2023-05-07T12:16:58;3.70;;;3.40;;
53040;SDS011;39326;42.650;23.248;2023-05-07T12:19:28;3.80;;;3.53;;
53040;SDS011;39326;42.650;23.248;2023-05-07T12:21:54;4.05;;;3.15;;
53040;SDS011;39326;42.650;23.248;2023-05-07T12:24:21;3.70;;;3.47;;
53040;SDS011;39326;42.650;23.248;2023-05-07T12:26:46;4.65;;;3.50;;
53040;SDS011;39326;42.650;23.248;2023-05-07T12:29:13;3.97;;;3.67;;
53040;SDS011;39326;42.650;23.248;2023-05-07T12:31:40;3.28;;;3.05;;
53040;SDS011;39326;42.650;23.248;2023-05-07T12:34:06;4.03;;;3.40;;
53040;SDS011;39326;42.650;23.248;2023-05-07T12:36:38;3.35;;;3.15;;
53040;SDS011;39326;42.650;23.248;2023-05-07T12:39:05;3.75;;;3.20;;
53040;SDS011;39326;42.650;23.248;2023-05-07T12:41:35;4.28;;;3.45;;
53040;SDS011;39326;42.650;23.248;2023-05-07T12:44:16;3.60;;;3.30;;
53040;SDS011;39326;42.650;23.248;2023-05-07T12:46:42;3.85;;;3.33;;
53040;SDS011;39326;42.650;23.248;2023-05-07T12:49:07;3.95;;;3.53;;
53040;SDS011;39326;42.650;23.248;2023-05-07T12:51:34;3.47;;;3.17;;
53040;SDS011;39326;42.650;23.248;2023-05-07T12:54:00;3.80;;;3.50;;
53040;SDS011;39326;42.650;23.248;2023-05-07T12:56:25;4.45;;;3.63;;
53040;SDS011;39326;42.650;23.248;2023-05-07T12:58:51;4.07;;;3.78;;
53040;SDS011;39326;42.650;23.248;2023-05-07T13:01:16;3.53;;;3.22;;
53040;SDS011;39326;42.650;23.248;2023-05-07T13:03:47;4.78;;;3.50;;
53040;SDS011;39326;42.650;23.248;2023-05-07T13:06:13;3.35;;;3.05;;
53040;SDS011;39326;42.650;23.248;2023-05-07T13:08:40;3.78;;;3.15;;
53040;SDS011;39326;42.650;23.248;2023-05-07T13:11:10;4.65;;;3.67;;
53040;SDS011;39326;42.650;23.248;2023-05-07T13:13:37;3.95;;;2.90;;
53040;SDS011;39326;42.650;23.248;2023-05-07T13:16:04;3.42;;;3.22;;
53040;SDS011;39326;42.650;23.248;2023-05-07T13:18:31;3.35;;;3.13;;
53040;SDS011;39326;42.650;23.248;2023-05-07T13:20:57;3.55;;;3.25;;
53040;SDS011;39326;42.650;23.248;2023-05-07T13:23:23;3.65;;;3.08;;
53040;SDS011;39326;42.650;23.248;2023-05-07T13:25:48;3.53;;;3.22;;
53040;SDS011;39326;42.650;23.248;2023-05-07T13:28:15;4.68;;;3.28;;
53040;SDS011;39326;42.650;23.248;2023-05-07T13:30:41;3.30;;;3.00;;
53040;SDS011;39326;42.650;23.248;2023-05-07T13:33:06;3.40;;;3.10;;
53040;SDS011;39326;42.650;23.248;2023-05-07T13:35:32;3.25;;;3.03;;
53040;SDS011;39326;42.650;23.248;2023-05-07T13:37:58;3.13;;;2.80;;
53040;SDS011;39326;42.650;23.248;2023-05-07T13:40:24;3.00;;;2.80;;
53040;SDS011;39326;42.650;23.248;2023-05-07T13:42:50;3.22;;;3.00;;
53040;SDS011;39326;42.650;23.248;2023-05-07T13:45:16;4.60;;;3.33;;
53040;SDS011;39326;42.650;23.248;2023-05-07T13:47:45;3.53;;;3.33;;
53040;SDS011;39326;42.650;23.248;2023-05-07T13:50:11;3.65;;;3.35;;
53040;SDS011;39326;42.650;23.248;2023-05-07T13:52:39;3.65;;;3.35;;
53040;SDS011;39326;42.650;23.248;2023-05-07T13:55:06;3.15;;;2.85;;
53040;SDS011;39326;42.650;23.248;2023-05-07T13:57:32;4.05;;;3.20;;
53040;SDS011;39326;42.650;23.248;2023-05-07T13:59:57;3.90;;;3.20;;
53040;SDS011;39326;42.650;23.248;2023-05-07T14:02:23;3.15;;;2.90;;
53040;SDS011;39326;42.650;23.248;2023-05-07T14:04:48;3.25;;;2.90;;
53040;SDS011;39326;42.650;23.248;2023-05-07T14:07:13;3.42;;;3.13;;
53040;SDS011;39326;42.650;23.248;2023-05-07T14:09:39;3.10;;;2.90;;
53040;SDS011;39326;42.650;23.248;2023-05-07T14:12:05;4.43;;;3.20;;
53040;SDS011;39326;42.650;23.248;2023-05-07T14:14:31;3.40;;;3.20;;
53040;SDS011;39326;42.650;23.248;2023-05-07T14:16:56;3.38;;;3.08;;
53040;SDS011;39326;42.650;23.248;2023-05-07T14:19:22;3.70;;;3.38;;
53040;SDS011;39326;42.650;23.248;2023-05-07T14:21:48;3.33;;;2.83;;
53040;SDS011;39326;42.650;23.248;2023-05-07T14:24:13;3.90;;;2.83;;
53040;SDS011;39326;42.650;23.248;2023-05-07T14:26:39;3.33;;;3.03;;
53040;SDS011;39326;42.650;23.248;2023-05-07T14:29:04;4.75;;;3.08;;
53040;SDS011;39326;42.650;23.248;2023-05-07T14:31:30;3.50;;;3.25;;
53040;SDS011;39326;42.650;23.248;2023-05-07T14:33:55;4.32;;;3.60;;
53040;SDS011;39326;42.650;23.248;2023-05-07T14:36:23;3.85;;;3.45;;
53040;SDS011;39326;42.650;23.248;2023-05-07T14:38:51;3.78;;;3.30;;
53040;SDS011;39326;42.650;23.248;2023-05-07T14:41:18;3.55;;;3.35;;
53040;SDS011;39326;42.650;23.248;2023-05-07T14:43:43;3.40;;;3.10;;